createdAt,value
2023-04-01T00:02:48.595Z,10.46
2023-04-01T00:06:44.476Z,10.46
2023-04-01T00:10:42.659Z,10.39
2023-04-01T00:15:11.853Z,10.29
2023-04-01T00:19:05.208Z,10.22
2023-04-01T00:23:39.294Z,10.19
2023-04-01T00:27:59.190Z,10.21
2023-04-01T00:36:31.790Z,10.25
2023-04-01T00:40:55.305Z,10.26
2023-04-01T00:45:22.960Z,10.26
2023-04-01T00:49:50.472Z,10.28
2023-04-01T00:54:10.135Z,10.29
2023-04-01T00:58:37.756Z,10.27
2023-04-01T01:02:50.555Z,10.24
2023-04-01T01:42:37.730Z,9.01
2023-04-01T01:47:06.595Z,8.86
2023-04-01T01:51:36.012Z,8.72
2023-04-01T01:56:05.819Z,8.62
2023-04-01T02:00:27.862Z,8.52
2023-04-01T02:35:07.754Z,7.67
2023-04-01T02:39:36.583Z,7.51
2023-04-01T02:58:02.027Z,7.16
2023-04-01T03:02:20.040Z,7.09
2023-04-01T03:06:49.434Z,7.02
2023-04-01T03:15:14.441Z,6.92
2023-04-01T03:19:24.271Z,6.85
2023-04-01T03:23:45.645Z,6.80
2023-04-01T03:42:59.121Z,6.65
2023-04-01T03:47:29.862Z,6.57
2023-04-01T03:51:51.360Z,6.48
2023-04-01T04:13:11.317Z,6.30
2023-04-01T04:17:40.181Z,6.22
2023-04-01T04:26:09.682Z,6.14
2023-04-01T04:30:31.161Z,6.09
2023-04-01T04:52:13.172Z,5.99
2023-04-01T04:56:30.271Z,5.99
2023-04-01T05:00:36.119Z,6.00
2023-04-01T05:08:35.159Z,6.06
2023-04-01T05:12:48.634Z,6.02
2023-04-01T05:16:54.808Z,6.00
2023-04-01T05:21:27.666Z,5.97
2023-04-01T05:25:56.373Z,5.97
2023-04-01T05:30:14.128Z,5.98
2023-04-01T05:34:16.674Z,5.97
2023-04-01T05:38:19.839Z,5.96
2023-04-01T05:42:38.661Z,5.95
2023-04-01T05:46:57.648Z,5.95
2023-04-01T05:51:26.987Z,5.96
2023-04-01T05:55:48.856Z,5.95
2023-04-01T05:59:46.560Z,5.92
2023-04-01T06:03:27.868Z,5.91
2023-04-01T06:07:57.607Z,5.89
2023-04-01T06:42:51.008Z,6.23
2023-04-01T06:46:49.854Z,6.24
2023-04-01T06:51:27.836Z,6.23
2023-04-01T06:55:26.161Z,6.22
2023-04-01T07:00:01.741Z,6.22
2023-04-01T07:21:24.852Z,6.37
2023-04-01T07:25:21.783Z,6.36
2023-04-01T07:29:50.560Z,6.36
2023-04-01T07:33:54.145Z,6.37
2023-04-01T07:38:23.843Z,6.39
2023-04-01T07:42:43.908Z,6.42
2023-04-01T07:47:01.754Z,6.47
2023-04-01T07:51:34.715Z,6.54
2023-04-01T08:09:44.393Z,6.66
2023-04-01T08:18:57.635Z,6.68
2023-04-01T08:23:46.345Z,6.73
2023-04-01T08:27:56.105Z,6.81
2023-04-01T08:32:42.146Z,6.86
2023-04-01T08:37:09.961Z,6.78
2023-04-01T08:41:41.951Z,6.74
2023-04-01T08:46:12.816Z,6.75
2023-04-01T08:50:39.115Z,6.74
2023-04-01T09:38:53.223Z,7.04
2023-04-01T09:42:56.215Z,7.00
2023-04-01T09:47:14.518Z,6.98
2023-04-01T09:51:34.294Z,6.95
2023-04-01T09:55:35.570Z,6.96
2023-04-01T10:00:06.291Z,6.85
2023-04-01T10:04:33.891Z,6.72
2023-04-01T10:09:33.933Z,6.67
2023-04-01T10:22:45.670Z,6.67
2023-04-01T10:40:16.757Z,6.91
2023-04-01T10:44:31.526Z,6.86
2023-04-01T10:49:05.701Z,6.77
2023-04-01T10:53:42.364Z,6.74
2023-04-01T10:58:40.499Z,6.83
2023-04-01T11:03:22.974Z,6.83
2023-04-01T11:08:05.882Z,6.84
2023-04-01T11:12:49.396Z,6.91
2023-04-01T11:16:56.148Z,6.89
2023-04-01T11:21:16.564Z,6.91
2023-04-01T11:25:40.220Z,6.88
2023-04-01T11:30:08.404Z,6.80
2023-04-01T11:34:39.282Z,6.70
2023-04-01T12:23:39.232Z,6.95
2023-04-01T12:28:07.073Z,6.91
2023-04-01T12:32:57.325Z,6.88
2023-04-01T12:37:16.827Z,6.82
2023-04-01T12:56:15.383Z,6.58
2023-04-01T13:00:41.253Z,6.57
2023-04-01T13:05:13.636Z,6.65
2023-04-01T13:09:54.547Z,6.76
2023-04-01T13:36:35.594Z,6.39
2023-04-01T13:41:16.695Z,6.25
2023-04-01T13:45:34.940Z,6.18
2023-04-01T13:49:55.019Z,6.12
2023-04-01T14:24:22.671Z,5.94
2023-04-01T14:29:08.662Z,5.94
2023-04-01T14:33:47.333Z,5.95
2023-04-01T14:38:19.682Z,5.97
2023-04-01T14:42:57.427Z,6.05
2023-04-01T14:47:35.235Z,6.04
2023-04-01T14:52:04.435Z,5.97
2023-04-01T15:23:16.488Z,5.38
2023-04-01T15:27:51.050Z,5.33
2023-04-01T15:32:21.742Z,5.32
2023-04-01T15:36:40.920Z,5.30
2023-04-01T15:41:15.194Z,5.32
2023-04-01T16:07:24.574Z,5.34
2023-04-01T16:12:15.315Z,5.23
2023-04-01T16:17:00.737Z,5.17
2023-04-01T17:01:53.705Z,4.65
2023-04-01T17:06:33.896Z,4.54
2023-04-01T17:11:04.585Z,4.50
2023-04-01T17:15:34.941Z,4.46
2023-04-01T17:20:19.215Z,4.45
2023-04-01T17:24:58.880Z,4.42
2023-04-01T17:29:47.077Z,4.38
2023-04-01T17:34:07.139Z,4.32
2023-04-01T17:56:27.820Z,4.18
2023-04-01T18:01:02.996Z,4.13
2023-04-01T18:05:17.320Z,4.08
2023-04-01T18:09:51.947Z,4.04
2023-04-01T18:14:14.893Z,3.99
2023-04-01T18:18:37.696Z,3.98
2023-04-01T18:32:20.595Z,3.95
2023-04-01T18:37:08.022Z,3.92
2023-04-01T18:50:36.265Z,3.96
2023-04-01T18:55:02.846Z,3.91
2023-04-01T18:59:34.454Z,3.87
2023-04-01T19:03:55.479Z,3.82
2023-04-01T19:08:41.521Z,3.81
2023-04-01T19:17:51.907Z,3.83
2023-04-01T19:22:19.052Z,3.82
2023-04-01T19:45:33.643Z,3.81
2023-04-01T19:50:14.801Z,3.75
2023-04-01T19:54:55.454Z,3.71
2023-04-01T19:59:27.620Z,3.66
2023-04-01T20:04:00.266Z,3.63
2023-04-01T20:26:24.162Z,3.49
2023-04-01T20:31:17.487Z,3.44
2023-04-01T20:35:38.938Z,3.42
2023-04-01T20:40:04.875Z,3.39
2023-04-01T21:04:00.651Z,3.37
2023-04-01T21:08:46.773Z,3.33
2023-04-01T21:13:06.950Z,3.29
2023-04-01T21:37:23.309Z,3.25
2023-04-01T21:41:58.126Z,3.21
2023-04-01T21:46:32.755Z,3.19
2023-04-01T21:51:03.866Z,3.19
2023-04-01T22:08:54.851Z,3.19
2023-04-01T22:13:25.313Z,3.19
2023-04-01T22:17:52.523Z,3.20
2023-04-01T22:22:01.840Z,3.19
2023-04-01T22:26:12.030Z,3.20
2023-04-01T22:43:57.830Z,3.19
2023-04-01T22:48:34.485Z,3.15
2023-04-01T22:52:55.727Z,3.14
2023-04-01T22:57:37.196Z,3.13
2023-04-01T23:01:57.002Z,3.16
2023-04-01T23:06:18.944Z,3.18
2023-04-01T23:10:50.342Z,3.19
2023-04-01T23:15:38.386Z,3.19
2023-04-01T23:37:15.897Z,3.31
2023-04-01T23:41:46.096Z,3.28
2023-04-01T23:46:17.501Z,3.28
